sensor_id;sensor_type;location;lat;lon;timestamp;temperature;humidity
38020;DHT22;23829;51.350;17.286;2023-06-14T00:02:19;26.20;36.10
38020;DHT22;23829;51.350;17.286;2023-06-14T00:04:46;26.30;36.30
38020;DHT22;23829;51.350;17.286;2023-06-14T00:07:14;26.10;37.00
38020;DHT22;23829;51.350;17.286;2023-06-14T00:09:42;26.10;36.90
38020;DHT22;23829;51.350;17.286;2023-06-14T00:12:09;26.20;38.00
38020;DHT22;23829;51.350;17.286;2023-06-14T00:14:35;26.20;37.30
38020;DHT22;23829;51.350;17.286;2023-06-14T00:17:02;26.20;37.40
38020;DHT22;23829;51.350;17.286;2023-06-14T00:19:28;26.10;37.30
38020;DHT22;23829;51.350;17.286;2023-06-14T00:21:56;26.10;37.10
38020;DHT22;23829;51.350;17.286;2023-06-14T00:24:23;26.10;38.00
38020;DHT22;23829;51.350;17.286;2023-06-14T00:26:50;26.20;37.30
38020;DHT22;23829;51.350;17.286;2023-06-14T00:29:17;25.90;37.50
38020;DHT22;23829;51.350;17.286;2023-06-14T00:31:43;26.00;37.80
38020;DHT22;23829;51.350;17.286;2023-06-14T00:34:10;26.00;37.50
38020;DHT22;23829;51.350;17.286;2023-06-14T00:36:36;26.00;37.80
38020;DHT22;23829;51.350;17.286;2023-06-14T00:39:03;26.20;37.30
38020;DHT22;23829;51.350;17.286;2023-06-14T00:41:29;26.30;37.10
38020;DHT22;23829;51.350;17.286;2023-06-14T00:43:56;26.40;36.40
38020;DHT22;23829;51.350;17.286;2023-06-14T00:46:22;26.40;36.40
38020;DHT22;23829;51.350;17.286;2023-06-14T00:48:49;26.30;36.60
38020;DHT22;23829;51.350;17.286;2023-06-14T00:51:16;26.40;37.00
38020;DHT22;23829;51.350;17.286;2023-06-14T00:53:43;26.30;37.00
38020;DHT22;23829;51.350;17.286;2023-06-14T00:56:14;26.20;37.30
38020;DHT22;23829;51.350;17.286;2023-06-14T00:58:42;26.10;37.20
38020;DHT22;23829;51.350;17.286;2023-06-14T01:01:09;26.00;37.40
38020;DHT22;23829;51.350;17.286;2023-06-14T01:03:36;26.00;37.30
38020;DHT22;23829;51.350;17.286;2023-06-14T01:12:11;26.20;37.00
38020;DHT22;23829;51.350;17.286;2023-06-14T01:14:41;26.20;37.00
38020;DHT22;23829;51.350;17.286;2023-06-14T01:17:08;26.10;37.00
38020;DHT22;23829;51.350;17.286;2023-06-14T01:19:42;26.00;37.00
38020;DHT22;23829;51.350;17.286;2023-06-14T01:22:10;26.20;36.30
38020;DHT22;23829;51.350;17.286;2023-06-14T01:24:37;26.10;36.50
38020;DHT22;23829;51.350;17.286;2023-06-14T01:27:05;26.10;36.00
38020;DHT22;23829;51.350;17.286;2023-06-14T01:29:33;26.50;34.90
38020;DHT22;23829;51.350;17.286;2023-06-14T01:32:02;26.40;34.60
38020;DHT22;23829;51.350;17.286;2023-06-14T01:34:31;26.50;34.70
38020;DHT22;23829;51.350;17.286;2023-06-14T01:36:58;26.30;34.70
38020;DHT22;23829;51.350;17.286;2023-06-14T01:39:26;26.30;34.80
38020;DHT22;23829;51.350;17.286;2023-06-14T01:41:55;26.50;34.40
38020;DHT22;23829;51.350;17.286;2023-06-14T01:44:23;26.40;34.40
38020;DHT22;23829;51.350;17.286;2023-06-14T01:46:51;26.10;35.00
38020;DHT22;23829;51.350;17.286;2023-06-14T01:49:18;25.90;35.50
38020;DHT22;23829;51.350;17.286;2023-06-14T01:51:44;26.10;35.20
38020;DHT22;23829;51.350;17.286;2023-06-14T01:54:10;26.20;34.80
38020;DHT22;23829;51.350;17.286;2023-06-14T01:56:38;26.20;34.60
38020;DHT22;23829;51.350;17.286;2023-06-14T01:59:05;26.10;34.80
38020;DHT22;23829;51.350;17.286;2023-06-14T02:01:32;26.00;35.00
38020;DHT22;23829;51.350;17.286;2023-06-14T02:04:01;25.90;35.40
38020;DHT22;23829;51.350;17.286;2023-06-14T02:06:28;26.00;35.20
38020;DHT22;23829;51.350;17.286;2023-06-14T02:08:55;26.00;35.50
38020;DHT22;23829;51.350;17.286;2023-06-14T02:11:21;26.10;35.50
38020;DHT22;23829;51.350;17.286;2023-06-14T02:13:48;25.90;35.80
38020;DHT22;23829;51.350;17.286;2023-06-14T02:16:15;25.90;36.40
38020;DHT22;23829;51.350;17.286;2023-06-14T02:18:43;25.80;36.50
38020;DHT22;23829;51.350;17.286;2023-06-14T02:21:09;25.80;37.40
38020;DHT22;23829;51.350;17.286;2023-06-14T02:23:36;25.70;37.60
38020;DHT22;23829;51.350;17.286;2023-06-14T02:26:03;25.70;37.60
38020;DHT22;23829;51.350;17.286;2023-06-14T02:28:29;25.60;38.70
38020;DHT22;23829;51.350;17.286;2023-06-14T02:30:56;25.70;39.30
38020;DHT22;23829;51.350;17.286;2023-06-14T02:33:23;25.70;39.70
38020;DHT22;23829;51.350;17.286;2023-06-14T02:35:52;25.80;39.80
38020;DHT22;23829;51.350;17.286;2023-06-14T02:38:19;25.80;39.30
38020;DHT22;23829;51.350;17.286;2023-06-14T02:40:48;25.90;39.70
38020;DHT22;23829;51.350;17.286;2023-06-14T02:43:14;25.90;38.50
38020;DHT22;23829;51.350;17.286;2023-06-14T02:45:43;26.20;37.10
38020;DHT22;23829;51.350;17.286;2023-06-14T02:48:10;26.40;37.00
38020;DHT22;23829;51.350;17.286;2023-06-14T02:50:37;26.50;36.30
38020;DHT22;23829;51.350;17.286;2023-06-14T02:53:03;26.70;36.50
38020;DHT22;23829;51.350;17.286;2023-06-14T02:55:30;26.40;36.80
38020;DHT22;23829;51.350;17.286;2023-06-14T02:57:57;26.30;37.40
38020;DHT22;23829;51.350;17.286;2023-06-14T03:00:24;26.20;37.80
38020;DHT22;23829;51.350;17.286;2023-06-14T03:02:51;26.30;38.50
38020;DHT22;23829;51.350;17.286;2023-06-14T03:05:19;26.20;38.60
38020;DHT22;23829;51.350;17.286;2023-06-14T03:07:49;26.20;39.30
38020;DHT22;23829;51.350;17.286;2023-06-14T03:10:16;26.20;39.40
38020;DHT22;23829;51.350;17.286;2023-06-14T03:12:45;26.20;39.00
38020;DHT22;23829;51.350;17.286;2023-06-14T03:15:12;26.00;38.80
38020;DHT22;23829;51.350;17.286;2023-06-14T03:17:42;26.00;38.80
38020;DHT22;23829;51.350;17.286;2023-06-14T03:20:12;26.00;38.50
38020;DHT22;23829;51.350;17.286;2023-06-14T03:22:39;26.40;38.90
38020;DHT22;23829;51.350;17.286;2023-06-14T03:25:06;26.60;37.70
38020;DHT22;23829;51.350;17.286;2023-06-14T03:27:37;26.70;37.30
38020;DHT22;23829;51.350;17.286;2023-06-14T03:30:05;26.60;37.60
38020;DHT22;23829;51.350;17.286;2023-06-14T03:32:32;26.80;37.50
38020;DHT22;23829;51.350;17.286;2023-06-14T03:35:00;27.00;37.30
38020;DHT22;23829;51.350;17.286;2023-06-14T03:37:26;26.70;38.20
38020;DHT22;23829;51.350;17.286;2023-06-14T03:39:52;26.50;38.50
38020;DHT22;23829;51.350;17.286;2023-06-14T03:42:22;26.40;38.70
38020;DHT22;23829;51.350;17.286;2023-06-14T03:44:50;26.50;39.10
38020;DHT22;23829;51.350;17.286;2023-06-14T03:47:18;26.50;39.00
38020;DHT22;23829;51.350;17.286;2023-06-14T03:49:45;26.50;39.50
38020;DHT22;23829;51.350;17.286;2023-06-14T03:52:11;26.50;39.60
38020;DHT22;23829;51.350;17.286;2023-06-14T03:54:42;26.50;39.50
38020;DHT22;23829;51.350;17.286;2023-06-14T03:57:11;26.50;39.50
38020;DHT22;23829;51.350;17.286;2023-06-14T03:59:37;26.70;40.00
38020;DHT22;23829;51.350;17.286;2023-06-14T04:02:04;26.80;40.20
38020;DHT22;23829;51.350;17.286;2023-06-14T04:04:33;26.90;39.80
38020;DHT22;23829;51.350;17.286;2023-06-14T04:07:02;26.80;40.30
38020;DHT22;23829;51.350;17.286;2023-06-14T04:09:32;26.60;40.00
38020;DHT22;23829;51.350;17.286;2023-06-14T04:11:58;26.50;40.50
38020;DHT22;23829;51.350;17.286;2023-06-14T04:14:25;26.90;40.70
38020;DHT22;23829;51.350;17.286;2023-06-14T04:16:51;27.20;40.00
38020;DHT22;23829;51.350;17.286;2023-06-14T04:19:19;27.00;40.80
38020;DHT22;23829;51.350;17.286;2023-06-14T04:21:46;26.90;40.90
38020;DHT22;23829;51.350;17.286;2023-06-14T04:24:14;27.40;40.80
38020;DHT22;23829;51.350;17.286;2023-06-14T04:26:43;27.20;40.40
38020;DHT22;23829;51.350;17.286;2023-06-14T04:29:16;26.90;41.00
38020;DHT22;23829;51.350;17.286;2023-06-14T04:31:46;26.80;41.80
38020;DHT22;23829;51.350;17.286;2023-06-14T04:34:14;26.80;42.10
38020;DHT22;23829;51.350;17.286;2023-06-14T04:36:45;26.30;42.40
38020;DHT22;23829;51.350;17.286;2023-06-14T04:39:21;26.30;43.30
38020;DHT22;23829;51.350;17.286;2023-06-14T04:41:49;26.80;43.50
38020;DHT22;23829;51.350;17.286;2023-06-14T04:44:24;26.80;43.20
38020;DHT22;23829;51.350;17.286;2023-06-14T04:46:57;26.60;42.70
38020;DHT22;23829;51.350;17.286;2023-06-14T04:49:25;26.40;43.40
38020;DHT22;23829;51.350;17.286;2023-06-14T04:51:53;26.60;43.60
38020;DHT22;23829;51.350;17.286;2023-06-14T04:54:36;26.60;44.40
38020;DHT22;23829;51.350;17.286;2023-06-14T04:57:09;26.90;43.30
38020;DHT22;23829;51.350;17.286;2023-06-14T04:59:40;26.90;43.50
38020;DHT22;23829;51.350;17.286;2023-06-14T05:02:08;26.60;44.80
38020;DHT22;23829;51.350;17.286;2023-06-14T05:04:34;26.60;44.20
38020;DHT22;23829;51.350;17.286;2023-06-14T05:07:09;26.40;44.50
38020;DHT22;23829;51.350;17.286;2023-06-14T05:09:36;26.30;45.20
38020;DHT22;23829;51.350;17.286;2023-06-14T05:12:04;26.20;45.00
38020;DHT22;23829;51.350;17.286;2023-06-14T05:14:30;26.20;45.20
38020;DHT22;23829;51.350;17.286;2023-06-14T05:16:57;26.30;45.60
38020;DHT22;23829;51.350;17.286;2023-06-14T05:19:24;26.40;46.10
38020;DHT22;23829;51.350;17.286;2023-06-14T05:21:50;26.40;45.60
38020;DHT22;23829;51.350;17.286;2023-06-14T05:24:17;26.00;46.40
38020;DHT22;23829;51.350;17.286;2023-06-14T05:26:44;26.10;46.70
38020;DHT22;23829;51.350;17.286;2023-06-14T05:29:11;26.20;46.40
38020;DHT22;23829;51.350;17.286;2023-06-14T05:31:38;27.00;45.10
38020;DHT22;23829;51.350;17.286;2023-06-14T05:34:04;27.50;43.60
38020;DHT22;23829;51.350;17.286;2023-06-14T05:36:31;27.70;43.70
38020;DHT22;23829;51.350;17.286;2023-06-14T05:38:57;27.80;43.40
38020;DHT22;23829;51.350;17.286;2023-06-14T05:41:26;27.70;43.70
38020;DHT22;23829;51.350;17.286;2023-06-14T05:43:55;27.70;43.90
38020;DHT22;23829;51.350;17.286;2023-06-14T05:46:23;28.10;43.60
38020;DHT22;23829;51.350;17.286;2023-06-14T05:48:52;27.80;42.90
38020;DHT22;23829;51.350;17.286;2023-06-14T05:51:19;27.40;44.00
38020;DHT22;23829;51.350;17.286;2023-06-14T05:53:46;27.40;44.10
38020;DHT22;23829;51.350;17.286;2023-06-14T05:56:16;27.50;43.90
38020;DHT22;23829;51.350;17.286;2023-06-14T05:58:46;27.90;43.80
38020;DHT22;23829;51.350;17.286;2023-06-14T06:01:14;28.00;43.00
38020;DHT22;23829;51.350;17.286;2023-06-14T06:03:40;28.20;42.80
38020;DHT22;23829;51.350;17.286;2023-06-14T06:06:07;28.50;41.90
38020;DHT22;23829;51.350;17.286;2023-06-14T06:08:34;28.70;41.50
38020;DHT22;23829;51.350;17.286;2023-06-14T06:11:01;28.70;41.50
38020;DHT22;23829;51.350;17.286;2023-06-14T06:13:28;28.60;41.90
38020;DHT22;23829;51.350;17.286;2023-06-14T06:15:55;28.90;42.00
38020;DHT22;23829;51.350;17.286;2023-06-14T06:18:22;29.50;40.40
38020;DHT22;23829;51.350;17.286;2023-06-14T06:20:48;29.80;39.70
38020;DHT22;23829;51.350;17.286;2023-06-14T06:23:15;29.70;39.80
38020;DHT22;23829;51.350;17.286;2023-06-14T06:25:42;29.30;40.40
38020;DHT22;23829;51.350;17.286;2023-06-14T06:28:09;28.70;41.10
38020;DHT22;23829;51.350;17.286;2023-06-14T06:30:35;28.60;41.40
38020;DHT22;23829;51.350;17.286;2023-06-14T06:33:02;28.30;41.90
38020;DHT22;23829;51.350;17.286;2023-06-14T06:35:29;28.30;41.90
38020;DHT22;23829;51.350;17.286;2023-06-14T06:37:56;28.40;41.80
38020;DHT22;23829;51.350;17.286;2023-06-14T06:40:23;28.70;41.40
38020;DHT22;23829;51.350;17.286;2023-06-14T06:42:50;28.50;41.70
38020;DHT22;23829;51.350;17.286;2023-06-14T06:45:18;28.00;42.30
38020;DHT22;23829;51.350;17.286;2023-06-14T06:47:45;28.20;42.00
38020;DHT22;23829;51.350;17.286;2023-06-14T06:50:11;28.20;42.10
38020;DHT22;23829;51.350;17.286;2023-06-14T06:52:38;28.30;42.40
38020;DHT22;23829;51.350;17.286;2023-06-14T06:55:04;28.30;42.30
38020;DHT22;23829;51.350;17.286;2023-06-14T06:57:31;28.40;41.40
38020;DHT22;23829;51.350;17.286;2023-06-14T06:59:58;28.60;41.10
38020;DHT22;23829;51.350;17.286;2023-06-14T07:02:25;28.40;41.40
38020;DHT22;23829;51.350;17.286;2023-06-14T07:04:51;28.90;40.90
38020;DHT22;23829;51.350;17.286;2023-06-14T07:07:17;28.80;40.70
38020;DHT22;23829;51.350;17.286;2023-06-14T07:09:44;28.90;40.50
38020;DHT22;23829;51.350;17.286;2023-06-14T07:12:12;28.90;40.30
38020;DHT22;23829;51.350;17.286;2023-06-14T07:14:38;29.10;40.50
38020;DHT22;23829;51.350;17.286;2023-06-14T07:17:05;29.30;40.20
38020;DHT22;23829;51.350;17.286;2023-06-14T07:19:32;29.20;40.40
38020;DHT22;23829;51.350;17.286;2023-06-14T07:21:59;29.30;40.00
38020;DHT22;23829;51.350;17.286;2023-06-14T07:24:26;29.50;39.30
38020;DHT22;23829;51.350;17.286;2023-06-14T07:26:54;29.60;39.60
38020;DHT22;23829;51.350;17.286;2023-06-14T07:29:21;29.70;39.40
38020;DHT22;23829;51.350;17.286;2023-06-14T07:31:48;29.90;39.20
38020;DHT22;23829;51.350;17.286;2023-06-14T07:34:14;30.30;36.90
38020;DHT22;23829;51.350;17.286;2023-06-14T07:36:41;30.30;37.90
38020;DHT22;23829;51.350;17.286;2023-06-14T07:39:10;30.30;38.30
38020;DHT22;23829;51.350;17.286;2023-06-14T07:41:37;30.70;37.10
38020;DHT22;23829;51.350;17.286;2023-06-14T07:44:03;30.80;36.30
38020;DHT22;23829;51.350;17.286;2023-06-14T07:46:30;30.40;37.00
38020;DHT22;23829;51.350;17.286;2023-06-14T07:48:56;29.90;37.50
38020;DHT22;23829;51.350;17.286;2023-06-14T07:51:23;30.00;37.40
38020;DHT22;23829;51.350;17.286;2023-06-14T07:53:49;30.00;36.60
38020;DHT22;23829;51.350;17.286;2023-06-14T07:56:16;29.60;37.80
38020;DHT22;23829;51.350;17.286;2023-06-14T07:58:42;29.90;37.80
38020;DHT22;23829;51.350;17.286;2023-06-14T08:01:09;30.00;37.30
38020;DHT22;23829;51.350;17.286;2023-06-14T08:03:36;30.10;37.20
38020;DHT22;23829;51.350;17.286;2023-06-14T08:06:03;30.20;37.10
38020;DHT22;23829;51.350;17.286;2023-06-14T08:08:30;30.50;36.40
38020;DHT22;23829;51.350;17.286;2023-06-14T08:10:57;30.50;36.10
38020;DHT22;23829;51.350;17.286;2023-06-14T08:13:23;30.10;36.50
38020;DHT22;23829;51.350;17.286;2023-06-14T08:15:50;29.90;36.50
38020;DHT22;23829;51.350;17.286;2023-06-14T08:18:16;29.70;37.10
38020;DHT22;23829;51.350;17.286;2023-06-14T08:20:43;29.50;37.60
38020;DHT22;23829;51.350;17.286;2023-06-14T08:23:10;29.90;37.30
38020;DHT22;23829;51.350;17.286;2023-06-14T08:25:36;29.50;37.20
38020;DHT22;23829;51.350;17.286;2023-06-14T08:28:03;29.50;37.80
38020;DHT22;23829;51.350;17.286;2023-06-14T08:30:29;29.70;37.50
38020;DHT22;23829;51.350;17.286;2023-06-14T08:32:56;30.40;36.20
38020;DHT22;23829;51.350;17.286;2023-06-14T08:35:23;30.30;36.20
38020;DHT22;23829;51.350;17.286;2023-06-14T08:37:49;30.30;36.20
38020;DHT22;23829;51.350;17.286;2023-06-14T08:40:21;30.30;36.30
38020;DHT22;23829;51.350;17.286;2023-06-14T08:42:52;30.20;36.30
38020;DHT22;23829;51.350;17.286;2023-06-14T08:45:21;30.30;36.40
38020;DHT22;23829;51.350;17.286;2023-06-14T08:47:48;30.30;36.90
38020;DHT22;23829;51.350;17.286;2023-06-14T08:50:25;30.30;36.30
38020;DHT22;23829;51.350;17.286;2023-06-14T08:53:01;30.50;36.80
38020;DHT22;23829;51.350;17.286;2023-06-14T08:55:30;30.90;35.60
38020;DHT22;23829;51.350;17.286;2023-06-14T08:57:57;30.80;35.70
38020;DHT22;23829;51.350;17.286;2023-06-14T09:00:25;30.80;35.30
38020;DHT22;23829;51.350;17.286;2023-06-14T09:02:52;30.60;35.50
38020;DHT22;23829;51.350;17.286;2023-06-14T09:05:25;30.90;35.00
38020;DHT22;23829;51.350;17.286;2023-06-14T09:07:52;30.60;35.40
38020;DHT22;23829;51.350;17.286;2023-06-14T09:10:21;30.80;35.40
38020;DHT22;23829;51.350;17.286;2023-06-14T09:12:48;31.00;35.30
38020;DHT22;23829;51.350;17.286;2023-06-14T09:15:15;31.30;35.50
38020;DHT22;23829;51.350;17.286;2023-06-14T09:17:42;30.80;35.80
38020;DHT22;23829;51.350;17.286;2023-06-14T09:20:09;31.30;34.50
38020;DHT22;23829;51.350;17.286;2023-06-14T09:22:39;31.10;35.00
38020;DHT22;23829;51.350;17.286;2023-06-14T09:25:06;31.20;34.90
38020;DHT22;23829;51.350;17.286;2023-06-14T09:27:33;31.80;34.00
38020;DHT22;23829;51.350;17.286;2023-06-14T09:30:00;30.50;34.60
38020;DHT22;23829;51.350;17.286;2023-06-14T09:32:26;30.40;35.70
38020;DHT22;23829;51.350;17.286;2023-06-14T09:34:53;30.60;35.30
38020;DHT22;23829;51.350;17.286;2023-06-14T09:37:29;30.90;34.80
38020;DHT22;23829;51.350;17.286;2023-06-14T09:39:57;31.50;33.90
38020;DHT22;23829;51.350;17.286;2023-06-14T09:42:24;31.60;33.50
38020;DHT22;23829;51.350;17.286;2023-06-14T09:44:55;31.60;34.10
38020;DHT22;23829;51.350;17.286;2023-06-14T09:47:23;31.50;33.90
38020;DHT22;23829;51.350;17.286;2023-06-14T09:49:51;31.10;34.70
38020;DHT22;23829;51.350;17.286;2023-06-14T09:52:19;31.10;34.40
38020;DHT22;23829;51.350;17.286;2023-06-14T09:54:47;31.20;34.00
38020;DHT22;23829;51.350;17.286;2023-06-14T09:57:23;31.10;35.00
38020;DHT22;23829;51.350;17.286;2023-06-14T09:59:53;31.40;33.40
38020;DHT22;23829;51.350;17.286;2023-06-14T10:02:26;31.30;33.50
38020;DHT22;23829;51.350;17.286;2023-06-14T10:05:02;31.50;33.80
38020;DHT22;23829;51.350;17.286;2023-06-14T10:07:55;31.80;33.20
38020;DHT22;23829;51.350;17.286;2023-06-14T10:10:22;31.80;32.90
38020;DHT22;23829;51.350;17.286;2023-06-14T10:12:49;31.80;32.60
38020;DHT22;23829;51.350;17.286;2023-06-14T10:15:20;31.50;33.90
38020;DHT22;23829;51.350;17.286;2023-06-14T10:17:54;31.20;34.50
38020;DHT22;23829;51.350;17.286;2023-06-14T10:20:49;31.20;34.60
38020;DHT22;23829;51.350;17.286;2023-06-14T10:23:19;31.30;34.10
38020;DHT22;23829;51.350;17.286;2023-06-14T10:25:50;31.60;34.40
38020;DHT22;23829;51.350;17.286;2023-06-14T10:28:21;32.30;33.00
38020;DHT22;23829;51.350;17.286;2023-06-14T10:33:32;31.10;34.90
38020;DHT22;23829;51.350;17.286;2023-06-14T10:39:10;31.50;34.40
38020;DHT22;23829;51.350;17.286;2023-06-14T10:41:39;31.60;34.60
38020;DHT22;23829;51.350;17.286;2023-06-14T10:46:54;31.30;35.20
38020;DHT22;23829;51.350;17.286;2023-06-14T10:49:42;31.50;34.90
38020;DHT22;23829;51.350;17.286;2023-06-14T10:52:11;31.40;34.00
38020;DHT22;23829;51.350;17.286;2023-06-14T10:55:04;30.80;34.90
38020;DHT22;23829;51.350;17.286;2023-06-14T11:00:09;31.60;34.10
38020;DHT22;23829;51.350;17.286;2023-06-14T11:06:16;31.50;34.30
38020;DHT22;23829;51.350;17.286;2023-06-14T11:09:00;31.40;34.00
38020;DHT22;23829;51.350;17.286;2023-06-14T11:11:33;30.90;34.90
38020;DHT22;23829;51.350;17.286;2023-06-14T11:14:02;30.90;34.90
38020;DHT22;23829;51.350;17.286;2023-06-14T11:16:29;30.70;35.40
38020;DHT22;23829;51.350;17.286;2023-06-14T11:18:55;30.10;35.70
38020;DHT22;23829;51.350;17.286;2023-06-14T11:21:22;30.80;35.90
38020;DHT22;23829;51.350;17.286;2023-06-14T11:23:52;30.90;35.60
38020;DHT22;23829;51.350;17.286;2023-06-14T11:26:29;30.90;35.50
38020;DHT22;23829;51.350;17.286;2023-06-14T11:28:58;30.20;36.50
38020;DHT22;23829;51.350;17.286;2023-06-14T11:31:26;30.50;36.80
38020;DHT22;23829;51.350;17.286;2023-06-14T11:33:56;30.20;37.80
38020;DHT22;23829;51.350;17.286;2023-06-14T11:36:26;30.70;36.40
38020;DHT22;23829;51.350;17.286;2023-06-14T11:39:04;31.10;36.50
38020;DHT22;23829;51.350;17.286;2023-06-14T11:41:41;31.40;35.70
38020;DHT22;23829;51.350;17.286;2023-06-14T11:44:09;31.80;34.30
38020;DHT22;23829;51.350;17.286;2023-06-14T11:46:36;31.80;34.00
38020;DHT22;23829;51.350;17.286;2023-06-14T11:49:03;31.60;34.80
38020;DHT22;23829;51.350;17.286;2023-06-14T11:51:34;31.50;35.10
38020;DHT22;23829;51.350;17.286;2023-06-14T11:54:02;31.10;36.10
38020;DHT22;23829;51.350;17.286;2023-06-14T11:56:31;31.10;35.90
38020;DHT22;23829;51.350;17.286;2023-06-14T11:58:58;31.00;36.20
38020;DHT22;23829;51.350;17.286;2023-06-14T12:01:25;31.40;35.70
38020;DHT22;23829;51.350;17.286;2023-06-14T12:03:54;32.00;33.50
38020;DHT22;23829;51.350;17.286;2023-06-14T12:06:28;31.40;34.90
38020;DHT22;23829;51.350;17.286;2023-06-14T12:08:56;31.20;35.20
38020;DHT22;23829;51.350;17.286;2023-06-14T12:11:22;31.50;34.90
38020;DHT22;23829;51.350;17.286;2023-06-14T12:13:49;31.60;34.50
38020;DHT22;23829;51.350;17.286;2023-06-14T12:16:16;31.60;34.60
38020;DHT22;23829;51.350;17.286;2023-06-14T12:18:43;31.40;35.00
38020;DHT22;23829;51.350;17.286;2023-06-14T12:21:10;31.40;34.80
38020;DHT22;23829;51.350;17.286;2023-06-14T12:23:46;31.80;34.30
38020;DHT22;23829;51.350;17.286;2023-06-14T12:26:17;32.00;33.90
38020;DHT22;23829;51.350;17.286;2023-06-14T12:28:46;31.30;34.60
38020;DHT22;23829;51.350;17.286;2023-06-14T12:31:13;31.20;35.20
38020;DHT22;23829;51.350;17.286;2023-06-14T12:33:40;31.50;34.90
38020;DHT22;23829;51.350;17.286;2023-06-14T12:36:08;31.80;33.80
38020;DHT22;23829;51.350;17.286;2023-06-14T12:38:36;31.80;34.30
38020;DHT22;23829;51.350;17.286;2023-06-14T12:41:03;31.60;34.50
38020;DHT22;23829;51.350;17.286;2023-06-14T12:43:30;31.30;34.90
38020;DHT22;23829;51.350;17.286;2023-06-14T12:45:56;31.20;35.40
38020;DHT22;23829;51.350;17.286;2023-06-14T12:48:22;31.30;35.20
38020;DHT22;23829;51.350;17.286;2023-06-14T12:50:49;31.40;35.40
38020;DHT22;23829;51.350;17.286;2023-06-14T12:53:15;31.30;35.40
38020;DHT22;23829;51.350;17.286;2023-06-14T12:55:43;31.20;34.60
38020;DHT22;23829;51.350;17.286;2023-06-14T12:58:10;31.00;35.00
38020;DHT22;23829;51.350;17.286;2023-06-14T13:00:38;30.70;35.20
38020;DHT22;23829;51.350;17.286;2023-06-14T13:03:05;30.70;35.70
38020;DHT22;23829;51.350;17.286;2023-06-14T13:05:32;31.00;35.30
38020;DHT22;23829;51.350;17.286;2023-06-14T13:08:00;31.10;35.10
38020;DHT22;23829;51.350;17.286;2023-06-14T13:10:27;31.10;35.10
38020;DHT22;23829;51.350;17.286;2023-06-14T13:12:54;31.30;34.80
38020;DHT22;23829;51.350;17.286;2023-06-14T13:15:20;31.10;34.90
38020;DHT22;23829;51.350;17.286;2023-06-14T13:17:47;31.20;34.70
38020;DHT22;23829;51.350;17.286;2023-06-14T13:20:14;31.50;34.70
38020;DHT22;23829;51.350;17.286;2023-06-14T13:22:42;31.70;34.70
38020;DHT22;23829;51.350;17.286;2023-06-14T13:25:09;32.00;34.50
38020;DHT22;23829;51.350;17.286;2023-06-14T13:27:36;32.00;34.40
38020;DHT22;23829;51.350;17.286;2023-06-14T13:30:03;32.20;34.70
38020;DHT22;23829;51.350;17.286;2023-06-14T13:32:32;32.20;34.60
38020;DHT22;23829;51.350;17.286;2023-06-14T13:34:58;32.20;34.80
38020;DHT22;23829;51.350;17.286;2023-06-14T13:37:24;32.20;35.00
38020;DHT22;23829;51.350;17.286;2023-06-14T13:39:51;32.30;35.20
38020;DHT22;23829;51.350;17.286;2023-06-14T13:42:17;32.30;35.40
38020;DHT22;23829;51.350;17.286;2023-06-14T13:44:44;32.40;35.40
38020;DHT22;23829;51.350;17.286;2023-06-14T13:47:10;32.50;35.50
38020;DHT22;23829;51.350;17.286;2023-06-14T13:49:37;32.70;35.20
38020;DHT22;23829;51.350;17.286;2023-06-14T13:52:04;32.60;35.10
38020;DHT22;23829;51.350;17.286;2023-06-14T13:54:30;32.60;34.80
38020;DHT22;23829;51.350;17.286;2023-06-14T13:56:57;32.60;34.60
38020;DHT22;23829;51.350;17.286;2023-06-14T13:59:23;32.60;35.00
38020;DHT22;23829;51.350;17.286;2023-06-14T14:01:50;32.50;34.00
38020;DHT22;23829;51.350;17.286;2023-06-14T14:04:16;32.70;34.10
38020;DHT22;23829;51.350;17.286;2023-06-14T14:06:43;32.70;34.20
38020;DHT22;23829;51.350;17.286;2023-06-14T14:09:09;32.70;33.90
38020;DHT22;23829;51.350;17.286;2023-06-14T14:11:36;32.90;33.60
38020;DHT22;23829;51.350;17.286;2023-06-14T14:14:02;32.80;33.60
38020;DHT22;23829;51.350;17.286;2023-06-14T14:16:30;32.80;33.80
38020;DHT22;23829;51.350;17.286;2023-06-14T14:18:56;32.70;33.80
38020;DHT22;23829;51.350;17.286;2023-06-14T14:21:23;32.70;33.70
38020;DHT22;23829;51.350;17.286;2023-06-14T14:23:49;32.70;33.80
38020;DHT22;23829;51.350;17.286;2023-06-14T14:26:16;32.60;34.20
38020;DHT22;23829;51.350;17.286;2023-06-14T14:28:43;32.50;34.30
38020;DHT22;23829;51.350;17.286;2023-06-14T14:31:09;32.50;34.30
38020;DHT22;23829;51.350;17.286;2023-06-14T14:33:36;32.40;34.20
38020;DHT22;23829;51.350;17.286;2023-06-14T14:36:02;32.40;34.50
38020;DHT22;23829;51.350;17.286;2023-06-14T14:38:30;32.30;34.60
38020;DHT22;23829;51.350;17.286;2023-06-14T14:40:56;32.20;34.90
38020;DHT22;23829;51.350;17.286;2023-06-14T14:43:22;32.20;35.10
38020;DHT22;23829;51.350;17.286;2023-06-14T14:45:49;32.20;35.00
38020;DHT22;23829;51.350;17.286;2023-06-14T14:48:15;32.10;35.40
38020;DHT22;23829;51.350;17.286;2023-06-14T14:50:42;32.10;35.10
38020;DHT22;23829;51.350;17.286;2023-06-14T14:53:08;32.10;37.90
38020;DHT22;23829;51.350;17.286;2023-06-14T14:55:35;32.10;36.40
38020;DHT22;23829;51.350;17.286;2023-06-14T14:58:03;32.10;37.60
38020;DHT22;23829;51.350;17.286;2023-06-14T15:00:30;32.20;36.60
38020;DHT22;23829;51.350;17.286;2023-06-14T15:02:56;32.20;36.80
38020;DHT22;23829;51.350;17.286;2023-06-14T15:05:23;32.00;35.70
38020;DHT22;23829;51.350;17.286;2023-06-14T15:07:49;31.60;36.10
38020;DHT22;23829;51.350;17.286;2023-06-14T15:10:16;31.20;36.70
38020;DHT22;23829;51.350;17.286;2023-06-14T15:12:42;31.10;37.00
38020;DHT22;23829;51.350;17.286;2023-06-14T15:15:09;30.80;37.40
38020;DHT22;23829;51.350;17.286;2023-06-14T15:17:36;30.70;37.80
38020;DHT22;23829;51.350;17.286;2023-06-14T15:20:04;30.60;38.10
38020;DHT22;23829;51.350;17.286;2023-06-14T15:22:32;30.30;38.50
38020;DHT22;23829;51.350;17.286;2023-06-14T15:24:58;29.70;39.30
38020;DHT22;23829;51.350;17.286;2023-06-14T15:27:25;29.20;40.20
38020;DHT22;23829;51.350;17.286;2023-06-14T15:29:52;29.40;41.10
38020;DHT22;23829;51.350;17.286;2023-06-14T15:32:19;29.90;40.20
38020;DHT22;23829;51.350;17.286;2023-06-14T15:34:46;30.00;40.90
38020;DHT22;23829;51.350;17.286;2023-06-14T15:37:12;30.00;40.30
38020;DHT22;23829;51.350;17.286;2023-06-14T15:39:39;30.00;40.70
38020;DHT22;23829;51.350;17.286;2023-06-14T15:42:06;30.10;41.10